Relevés horaires Elsenborn (Belgique)


Relevés horaires à Elsenborn - Jeudi 23 Avr. 2026
Heure UTC1 Température [°C] Vent [km/h] Hum. [%] Pres.4 [hPa] Visi. [Km] Nébu. [octa] Préc.5 [mm] Cond.
2m. Res. Ros. Dir.2 Vit. Moy. Raf.3
23:00 4.3 4.3 0.1 NE 3.7 -- 7.4 74 1027.2(-0.5/3h) >70 -- -- --
22:00 6.4 6.4 -0.6 NE 3.7 -- 7.4 61 1026.9(-0.3/3h) >70 -- -- --
21:00 5.1 5.1 -2.1 NE 3.7 -- 9.3 60 1027.5(-0.1/3h) >70 -- -- --
20:00 6.4 6.4 -2.5 NNO 1.9 -- 5.6 53 1027.4(0.0/3h) >70 -- -- --
19:00 9.6 9.6 -4.2 N 3.7 -- 9.3 37 1026.5(-0.4/3h) >70 -- -- --
18:00 13.1 13.1 -6.6 N 5.6 -- 16.7 25 1025.7(-0.8/3h) >70 -- -- --
17:00 14.6 14.5 -8.7 N 7.4 -- 13.0 19 1025.4(-1.0/3h) >70 -- -- --
16:00 15.6 15.4 -8.8 NE 9.3 -- 13.0 18 1025.5(-1.3/3h) >70 -- -- --
15:00 16.1 16.1 -8.1 NE 7.4 -- 16.7 18 1025.9(-1.1/3h) >70 -- -- --
14:00 16.4 16.4 -3.9 NE 5.6 -- 13.0 25 1026.2(-1.1/3h) >70 -- -- --
13:00 15.9 15.9 -4.9 NE 5.6 -- 13.0 23 1026.7(-0.7/3h) >70 -- -- --
12:00 15.4 15.4 -9.1 NE 5.6 -- 13.0 18 1027.2(-0.8/3h) >70 -- -- --
11:00 14.8 14.8 -6.6 ENE 5.6 -- 13.0 22 1027.7(-0.2/3h) >70 -- -- --
10:00 13.8 13.8 -1.1 NE 3.7 -- 13.0 36 1028.2(0.4/3h) >70 -- -- --
09:00 12.2 11.7 -1.1 NE 7.4 -- 11.1 40 1028.7(0.7/3h) >70 -- -- --
08:00 11.2 11 -1.2 ENE 5.6 -- 9.3 42 1028.7(0.9/3h) >70 -- -- --
07:00 6.8 6.8 2.2 NNO 1.9 -- 1.9 72 1029.4(0.7/3h) >70 -- -- --
06:00 -0.2 -0.2 -2.5 NNO 1.9 -- 3.7 84 1031(0.5/3h) >70 -- -- --
05:00 -3.3 -3.3 -3.8 NNO 1.9 -- 3.7 96 1031.5(0.3/3h) 15 -- -- --
04:00 -3.4 -3.4 -3.8 NNO 1.9 -- 3.7 97 1031.2(0.3/3h) 17 -- -- --
03:00 -2.3 -2.3 -3.1 NNO 1.9 -- 3.7 94 1031(0.4/3h) 16 -- -- --
02:00 -2.5 -2.5 -3.2 NNO 1.9 -- 3.7 95 1031(0.3/3h) 16 -- -- --
01:00 -1.5 -1.5 -2.5 NNO 1.9 -- 3.7 93 1030.5(0.5/3h) 17 -- -- --
00:00 -0.1 -0.1 -2.0 ESE 3.7 -- 9.3 87 1030(0.6/3h) >70 -- -- --

1 Coordinated Universal Time. Actuellement il est 07:00 locale et 05:00 UTC.

2 Le vent souffle depuis la direction indiquée vers la direction oposée.

3 Les rafales max. sont disponible 40 min après l'heure du relevé.

4 Pour les stations d'altitude (plus de 600m) le géopotentiel du niveau le plus proche de la pression obligatoire est indiqué.

5 Les stations disposant d'un diffuseur peuvent indiquer "trace". Cela signifie que des précipitations ont touchés le sol mais que la quantité est inférieure à 0.1 mm.

Récapitulatif de la journée
Température [°C] Vent [km/h] Ensoleillement4 [h] Precipitations totale5 [mm] Pression [Hpa]
Min1 Max.2 Moy.3 Max. Min Max.
-3.6 16.9 0 16.7 0 h 0 min 0 1025.4 1031.5

1 Température minimale relevée entre 18:00 UTC la veille et 18:00 UTC le jour donné.

2 Température maximale relevée entre 06:00 UTC le jour donné et 06:00 UTC le lendemain.

3 Vent moyen de la journée basé sur les relevés horaires.

4 Ensoleillement en heures relevé entre 06:00 UTC la veille et 06:00 UTC le jour donné.

5 Précipitations totales tombées entre 06:00 UTC la jour donné et 06:00 UTC le lendemain.

Graphiques horaires